KNBG/NBG METAR and TAF weather

Enter ICAO airport designator
Station Type Date Time Source
KNBG METAR 2019/10/23 06:55 UTC NOAA

KNBG 230655Z AUTO 00000KT 10SM CLR 09/09 A3015 RMK AO2 SLP210 T00940094 $


Station Type Date Time Source
KNBG Decoded METAR 2019/10/23 06:55 UTC NOAA

NEW ORLEANS NAVAL AIR STN, LA, United States (KNBG) 29-50N 90-01W
Oct 23, 2019 - 02:55 AM EDT / 2019.10.23 0655 UTC
Wind: Calm:0
Visibility: 10 mile(s):0
Sky conditions: clear
Temperature: 48.9 F (9.4 C)
Dew Point: 48.9 F (9.4 C)
Relative Humidity: 100%
Pressure (altimeter): 30.15 in. Hg (1020 hPa)
ob: KNBG 230655Z AUTO 00000KT 10SM CLR 09/09 A3015 RMK AO2 SLP210 T00940094
cycle: 7

Station Type Date Time Source
KNBG TAF 2019/10/23 07:08 UTC NOAA

TAF KNBG 2307/2407 VRB05KT 9999 FEW250 QNH3009INS
BECMG 2316/2318 05010KT 9999 SKC QNH3006INS
BECMG 2323/2401 VRB06KT 9999 SKC QNH3006INS AUTOMATED SENSOR METWATCH 2307 TIL 2310 T12/2311Z T24/2320Z FN00220

Example: see airport list